Air Navigation Services of Czech Republic
Airport: LKKB Updated:  22.04.2021 15:57:26  UTC
 METAR LKKB 22.04. 16:00 ...
METAR LKKB 221600Z 33013KT 9999 FEW046 BKN190 09/M05 Q1020 NOSIG RMK BLU BLU=
 TAF LKKB 22.04. 11:00 ...
TAF LKKB 221100Z 2212/2312 28012KT CAVOK      TEMPO 2212/2221 30014G24KT      PROB30 TEMPO 2212/2217 31016G32KT      BECMG 2300/2302 27008KT      BECMG 2306/2309 BKN035      TEMPO 2307/2312 31014G26KT=